createdAt,value
2023-02-13T00:02:07.865Z,23.70
2023-02-13T00:04:35.744Z,24.10
2023-02-13T00:07:02.887Z,22.03
2023-02-13T00:09:29.962Z,23.50
2023-02-13T00:11:57.070Z,23.40
2023-02-13T00:14:24.244Z,25.27
2023-02-13T00:16:51.344Z,26.83
2023-02-13T00:19:18.422Z,23.17
2023-02-13T00:21:46.631Z,26.77
2023-02-13T00:24:13.879Z,26.37
2023-02-13T00:26:41.469Z,27.20
2023-02-13T00:29:08.601Z,26.90
2023-02-13T00:31:35.841Z,26.73
2023-02-13T00:34:03.042Z,27.63
2023-02-13T00:36:30.175Z,28.73
2023-02-13T00:38:57.361Z,29.07
2023-02-13T00:41:24.537Z,29.23
2023-02-13T00:43:51.696Z,29.03
2023-02-13T00:46:19.014Z,30.77
2023-02-13T00:48:46.313Z,30.87
2023-02-13T00:51:13.696Z,30.83
2023-02-13T00:53:40.856Z,31.00
2023-02-13T00:56:08.184Z,33.07
2023-02-13T00:58:35.353Z,32.07
2023-02-13T01:01:02.536Z,30.83
2023-02-13T01:03:29.807Z,30.30
2023-02-13T01:05:58.250Z,31.83
2023-02-13T01:08:28.234Z,33.70
2023-02-13T01:10:56.116Z,34.07
2023-02-13T01:13:23.436Z,33.20
2023-02-13T01:15:51.182Z,35.33
2023-02-13T01:18:18.914Z,35.20
2023-02-13T01:20:46.378Z,34.37
2023-02-13T01:23:13.634Z,34.43
2023-02-13T01:25:43.831Z,35.37
2023-02-13T01:28:11.038Z,36.17
2023-02-13T01:30:38.193Z,35.13
2023-02-13T01:33:05.332Z,35.17
2023-02-13T01:35:32.457Z,35.17
2023-02-13T01:37:59.565Z,33.80
2023-02-13T01:40:30.004Z,33.80
2023-02-13T01:42:57.256Z,32.43
2023-02-13T01:45:24.362Z,33.47
2023-02-13T01:47:51.406Z,33.23
2023-02-13T01:50:21.516Z,33.23
2023-02-13T01:52:53.315Z,32.80
2023-02-13T01:55:20.657Z,34.93
2023-02-13T01:57:52.734Z,34.23
2023-02-13T02:00:20.091Z,36.67
2023-02-13T02:02:56.056Z,39.33
2023-02-13T02:05:25.172Z,38.23
2023-02-13T02:07:52.262Z,36.03
2023-02-13T02:10:20.622Z,35.87
2023-02-13T02:12:54.337Z,34.40
2023-02-13T02:15:21.754Z,34.73
2023-02-13T02:17:48.884Z,35.77
2023-02-13T02:20:15.990Z,38.00
2023-02-13T02:23:08.666Z,37.20
2023-02-13T02:25:54.393Z,36.07
2023-02-13T02:28:27.771Z,37.70
2023-02-13T02:31:01.409Z,38.77
2023-02-13T02:33:42.921Z,37.53
2023-02-13T02:36:28.770Z,35.13
2023-02-13T02:39:14.576Z,36.77
2023-02-13T02:41:41.766Z,35.70
2023-02-13T02:44:08.865Z,43.10
2023-02-13T02:47:04.389Z,51.83
2023-02-13T02:49:52.036Z,49.83
2023-02-13T02:52:20.916Z,44.57
2023-02-13T02:55:06.780Z,57.00
2023-02-13T02:57:59.582Z,47.80
2023-02-13T03:00:46.188Z,50.37
2023-02-13T03:03:36.341Z,65.07
2023-02-13T03:06:11.025Z,59.10
2023-02-13T03:08:57.224Z,55.73
2023-02-13T03:11:43.338Z,51.33
2023-02-13T03:14:11.381Z,54.43
2023-02-13T03:16:57.422Z,38.43
2023-02-13T03:19:51.042Z,38.57
2023-02-13T03:22:53.545Z,43.77
2023-02-13T03:25:30.377Z,40.30
2023-02-13T03:28:25.043Z,40.87
2023-02-13T03:31:01.545Z,38.87
2023-02-13T03:33:28.714Z,37.53
2023-02-13T03:36:17.509Z,42.37
2023-02-13T03:38:52.894Z,40.70
2023-02-13T03:41:23.665Z,36.97
2023-02-13T03:43:50.752Z,38.37
2023-02-13T03:46:18.972Z,47.73
2023-02-13T03:49:04.885Z,42.77
2023-02-13T03:51:34.818Z,57.27
2023-02-13T03:54:04.393Z,48.80
2023-02-13T03:56:51.431Z,56.73
2023-02-13T03:59:23.743Z,48.70
2023-02-13T04:01:55.348Z,43.20
2023-02-13T04:04:26.120Z,46.10
2023-02-13T04:06:56.585Z,45.87
2023-02-13T04:09:28.137Z,44.80
2023-02-13T04:11:58.046Z,51.30
2023-02-13T04:14:35.603Z,44.23
2023-02-13T04:17:07.528Z,44.87
2023-02-13T04:19:34.815Z,45.17
2023-02-13T04:22:03.086Z,53.47
2023-02-13T04:24:30.313Z,48.53
2023-02-13T04:26:57.698Z,46.70
2023-02-13T04:29:25.566Z,40.40
2023-02-13T04:31:52.938Z,40.63
2023-02-13T04:34:20.065Z,44.07
2023-02-13T04:36:47.151Z,41.60
2023-02-13T04:39:14.339Z,41.83
2023-02-13T04:41:41.467Z,55.47
2023-02-13T04:44:08.573Z,51.23
2023-02-13T04:46:35.732Z,44.23
2023-02-13T04:49:02.909Z,38.17
2023-02-13T04:51:30.072Z,37.33
2023-02-13T04:53:57.128Z,35.97
2023-02-13T04:56:24.260Z,35.57
2023-02-13T04:58:51.358Z,36.40
2023-02-13T05:01:19.191Z,34.20
2023-02-13T05:03:46.601Z,41.17
2023-02-13T05:06:13.898Z,39.33
2023-02-13T05:08:41.108Z,48.57
2023-02-13T05:11:08.312Z,54.60
2023-02-13T05:13:35.414Z,40.00
2023-02-13T05:16:02.582Z,50.60
2023-02-13T05:18:29.713Z,51.60
2023-02-13T05:21:15.363Z,41.93
2023-02-13T05:23:42.456Z,52.10
2023-02-13T05:26:09.577Z,37.83
2023-02-13T05:28:55.811Z,34.70
2023-02-13T05:31:23.029Z,54.03
2023-02-13T05:33:50.236Z,44.83
2023-02-13T05:36:17.360Z,51.03
2023-02-13T05:38:44.484Z,56.27
2023-02-13T05:41:13.520Z,50.33
2023-02-13T05:43:40.713Z,50.03
2023-02-13T05:46:08.569Z,38.27
2023-02-13T05:48:35.999Z,33.80
2023-02-13T05:51:03.120Z,41.03
2023-02-13T05:53:30.288Z,34.77
2023-02-13T05:55:57.427Z,35.93
2023-02-13T05:58:24.506Z,44.17
2023-02-13T06:00:51.615Z,36.07
2023-02-13T06:03:18.871Z,45.30
2023-02-13T06:05:46.064Z,36.97
2023-02-13T06:08:13.178Z,47.90
2023-02-13T06:10:40.317Z,28.00
2023-02-13T06:13:07.430Z,27.33
2023-02-13T06:15:34.525Z,38.20
2023-02-13T06:18:01.684Z,42.43
2023-02-13T06:20:28.768Z,43.47
2023-02-13T06:22:55.911Z,33.33
2023-02-13T06:25:23.013Z,33.83
2023-02-13T06:27:50.217Z,29.50
2023-02-13T06:30:18.281Z,48.60
2023-02-13T06:32:47.362Z,49.00
2023-02-13T06:35:15.093Z,38.40
2023-02-13T06:37:43.986Z,42.63
2023-02-13T06:40:11.547Z,42.23
2023-02-13T06:42:38.665Z,25.77
2023-02-13T06:45:06.079Z,27.43
2023-02-13T06:47:33.166Z,51.10
2023-02-13T06:50:00.271Z,48.70
2023-02-13T06:52:28.016Z,51.07
2023-02-13T06:54:55.137Z,43.40
2023-02-13T06:57:22.231Z,46.13
2023-02-13T06:59:49.338Z,31.43
2023-02-13T07:02:16.453Z,32.77
2023-02-13T07:04:43.588Z,43.23
2023-02-13T07:07:10.706Z,44.77
2023-02-13T07:09:37.909Z,40.33
2023-02-13T07:12:05.696Z,40.10
2023-02-13T07:14:32.888Z,36.33
2023-02-13T07:17:00.007Z,29.03
2023-02-13T07:19:27.292Z,30.90
2023-02-13T07:21:54.436Z,37.27
2023-02-13T07:24:21.559Z,34.87
2023-02-13T07:26:48.684Z,34.93
2023-02-13T07:29:15.826Z,30.40
2023-02-13T07:31:42.951Z,33.03
2023-02-13T07:34:10.138Z,38.20
2023-02-13T07:36:37.203Z,29.47
2023-02-13T07:39:04.314Z,38.97
2023-02-13T07:41:31.413Z,35.67
2023-02-13T07:43:58.490Z,32.13
2023-02-13T07:46:25.665Z,28.20
2023-02-13T07:48:53.244Z,40.40
2023-02-13T07:51:20.747Z,31.83
2023-02-13T07:53:47.864Z,27.47
2023-02-13T07:56:14.976Z,29.33
2023-02-13T07:58:42.169Z,31.70
2023-02-13T08:01:13.286Z,35.67
2023-02-13T08:03:40.554Z,22.70
2023-02-13T08:06:07.971Z,22.63
2023-02-13T08:08:35.249Z,34.77
2023-02-13T08:11:27.784Z,24.43
2023-02-13T08:13:54.861Z,24.40
2023-02-13T08:16:22.041Z,21.17
2023-02-13T08:18:49.149Z,22.53
2023-02-13T08:21:16.264Z,19.20
2023-02-13T08:23:43.535Z,30.30
2023-02-13T08:26:11.120Z,18.87
2023-02-13T08:28:38.428Z,16.00
2023-02-13T08:31:11.747Z,16.47
2023-02-13T08:33:39.803Z,22.83
2023-02-13T08:36:07.181Z,24.67
2023-02-13T08:38:34.603Z,21.30
2023-02-13T08:41:01.694Z,25.37
2023-02-13T08:43:28.778Z,26.83
2023-02-13T08:45:59.033Z,18.87
2023-02-13T08:48:26.845Z,19.93
2023-02-13T08:50:54.151Z,21.03
2023-02-13T08:53:21.328Z,22.07
2023-02-13T08:55:54.995Z,20.37
2023-02-13T08:58:22.364Z,19.80
2023-02-13T09:00:49.472Z,20.07
2023-02-13T09:03:16.817Z,20.87
2023-02-13T09:05:44.013Z,19.87
2023-02-13T09:08:14.482Z,19.40
2023-02-13T09:10:43.729Z,21.97
2023-02-13T09:13:10.907Z,22.43
2023-02-13T09:15:41.123Z,25.50
2023-02-13T09:18:08.572Z,20.53
2023-02-13T09:20:36.232Z,19.97
2023-02-13T09:23:03.500Z,30.97
2023-02-13T09:25:30.692Z,19.93
2023-02-13T09:27:57.784Z,18.77
2023-02-13T09:30:24.991Z,23.80
2023-02-13T09:32:52.860Z,27.80
2023-02-13T09:35:20.620Z,30.00
2023-02-13T09:37:47.929Z,32.10
2023-02-13T09:40:19.376Z,30.07
2023-02-13T09:42:47.060Z,33.23
2023-02-13T09:45:14.890Z,25.70
2023-02-13T09:47:45.589Z,19.80
2023-02-13T09:50:15.315Z,21.50
2023-02-13T09:52:44.424Z,21.83
2023-02-13T09:55:18.825Z,23.77
2023-02-13T09:57:52.681Z,22.80
2023-02-13T10:00:19.786Z,20.30
2023-02-13T10:02:52.990Z,23.40
2023-02-13T10:05:29.090Z,19.10
2023-02-13T10:08:05.444Z,18.80
2023-02-13T10:10:41.538Z,18.50
2023-02-13T10:13:11.421Z,18.13
2023-02-13T10:15:58.060Z,19.30
2023-02-13T10:18:32.051Z,17.53
2023-02-13T10:21:02.375Z,16.70
2023-02-13T10:23:33.699Z,16.37
2023-02-13T10:26:05.521Z,18.40
2023-02-13T10:28:45.133Z,17.03
2023-02-13T10:31:18.194Z,16.53
2023-02-13T10:33:50.804Z,16.70
2023-02-13T10:36:20.164Z,15.53
2023-02-13T10:39:05.437Z,15.93
2023-02-13T10:41:42.929Z,17.40
2023-02-13T10:44:10.969Z,15.77
2023-02-13T10:46:52.290Z,16.20
2023-02-13T10:49:38.029Z,17.07
2023-02-13T10:52:23.972Z,15.70
2023-02-13T10:55:03.470Z,15.00
2023-02-13T10:57:39.004Z,16.20
2023-02-13T11:00:16.359Z,15.23
2023-02-13T11:02:43.475Z,15.20
2023-02-13T11:05:18.886Z,16.37
2023-02-13T11:07:47.143Z,15.70
2023-02-13T11:10:18.656Z,15.50
2023-02-13T11:12:46.225Z,15.67
2023-02-13T11:15:29.766Z,15.47
2023-02-13T11:18:17.157Z,15.30
2023-02-13T11:20:48.047Z,16.23
2023-02-13T11:23:18.288Z,15.40
2023-02-13T11:26:07.684Z,16.40
2023-02-13T11:28:36.632Z,16.13
2023-02-13T11:31:15.376Z,15.63
2023-02-13T11:33:42.774Z,18.57
2023-02-13T11:36:17.252Z,21.37
2023-02-13T11:38:44.614Z,16.43
2023-02-13T11:41:13.361Z,16.50
2023-02-13T11:43:51.204Z,17.00
2023-02-13T11:46:19.130Z,14.40
2023-02-13T11:48:57.330Z,14.87
2023-02-13T11:51:42.094Z,15.20
2023-02-13T11:54:22.959Z,16.77
2023-02-13T11:57:03.967Z,14.60
2023-02-13T11:59:34.008Z,16.03
2023-02-13T12:02:10.011Z,15.03
2023-02-13T12:04:37.131Z,16.13
2023-02-13T12:07:06.149Z,15.67
2023-02-13T12:09:33.325Z,15.13
2023-02-13T12:12:06.415Z,15.07
2023-02-13T12:14:39.361Z,15.90
2023-02-13T12:17:25.535Z,15.87
2023-02-13T12:19:57.783Z,15.03
2023-02-13T12:22:28.696Z,13.63
2023-02-13T12:25:09.428Z,13.73
2023-02-13T12:27:42.893Z,13.33
2023-02-13T12:30:09.980Z,14.60
2023-02-13T12:32:55.636Z,14.47
2023-02-13T12:35:22.787Z,12.47
2023-02-13T12:38:01.874Z,11.80
2023-02-13T12:40:31.843Z,11.73
2023-02-13T12:43:02.017Z,11.97
2023-02-13T12:45:42.264Z,12.20
2023-02-13T12:48:24.578Z,12.57
2023-02-13T12:51:07.891Z,11.70
2023-02-13T12:53:53.957Z,11.37
2023-02-13T12:56:33.238Z,11.80
2023-02-13T12:59:15.647Z,10.80
2023-02-13T13:01:48.710Z,11.27
2023-02-13T13:04:15.831Z,10.10
2023-02-13T13:06:46.261Z,10.32
2023-02-13T13:09:16.150Z,10.70
2023-02-13T13:11:43.232Z,10.85
2023-02-13T13:14:28.985Z,10.70
2023-02-13T13:16:59.256Z,9.82
2023-02-13T13:19:50.536Z,13.52
2023-02-13T13:22:42.469Z,11.88
2023-02-13T13:25:15.540Z,11.88
2023-02-13T13:27:44.540Z,12.13
2023-02-13T13:30:40.905Z,11.55
2023-02-13T13:33:14.771Z,10.63
2023-02-13T13:35:45.236Z,10.85
2023-02-13T13:38:15.277Z,11.25
2023-02-13T13:40:55.453Z,11.48
2023-02-13T13:43:34.601Z,11.50
2023-02-13T13:46:06.785Z,10.65
2023-02-13T13:49:00.226Z,11.60
2023-02-13T13:51:27.652Z,11.32
2023-02-13T13:54:03.883Z,10.93
2023-02-13T13:56:49.551Z,11.32
2023-02-13T13:59:18.519Z,12.52
2023-02-13T14:01:45.788Z,12.15
2023-02-13T14:04:31.824Z,12.32
2023-02-13T14:06:58.926Z,15.13
2023-02-13T14:09:28.923Z,15.32
2023-02-13T14:11:56.761Z,12.07
2023-02-13T14:14:32.823Z,12.23
2023-02-13T14:17:02.107Z,12.07
2023-02-13T14:19:29.174Z,11.95
2023-02-13T14:22:16.229Z,11.52
2023-02-13T14:24:44.312Z,12.13
2023-02-13T14:27:21.447Z,12.80
2023-02-13T14:29:48.759Z,11.73
2023-02-13T14:32:18.685Z,13.70
2023-02-13T14:34:52.343Z,13.77
2023-02-13T14:37:24.473Z,13.02
2023-02-13T14:40:29.920Z,11.85
2023-02-13T14:42:56.990Z,12.52
2023-02-13T14:45:27.880Z,12.73
2023-02-13T14:47:57.588Z,11.88
2023-02-13T14:50:27.271Z,13.07
2023-02-13T14:52:54.889Z,14.20
2023-02-13T14:55:32.119Z,13.10
2023-02-13T14:58:05.706Z,12.77
2023-02-13T15:00:39.701Z,12.13
2023-02-13T15:03:14.471Z,13.45
2023-02-13T15:05:41.914Z,14.32
2023-02-13T15:08:14.781Z,13.43
2023-02-13T15:10:47.062Z,13.45
2023-02-13T15:13:33.922Z,14.10
2023-02-13T15:16:03.294Z,13.18
2023-02-13T15:18:39.534Z,12.43
2023-02-13T15:21:06.717Z,15.17
2023-02-13T15:23:34.765Z,13.03
2023-02-13T15:26:03.268Z,14.43
2023-02-13T15:28:30.669Z,13.63
2023-02-13T15:31:01.288Z,12.70
2023-02-13T15:33:30.236Z,12.17
2023-02-13T15:35:58.689Z,13.57
2023-02-13T15:38:28.793Z,14.52
2023-02-13T15:40:58.428Z,12.87
2023-02-13T15:43:31.679Z,12.63
2023-02-13T15:46:01.100Z,13.33
2023-02-13T15:48:29.646Z,13.80
2023-02-13T15:50:57.034Z,14.67
2023-02-13T15:53:24.317Z,13.37
2023-02-13T15:55:58.868Z,14.30
2023-02-13T15:58:28.451Z,13.90
2023-02-13T16:00:56.392Z,14.57
2023-02-13T16:03:26.026Z,14.57
2023-02-13T16:05:53.520Z,14.37
2023-02-13T16:08:35.963Z,14.60
2023-02-13T16:11:21.745Z,15.17
2023-02-13T16:13:54.992Z,15.63
2023-02-13T16:16:24.094Z,16.10
2023-02-13T16:18:51.764Z,17.30
2023-02-13T16:21:23.334Z,17.33
2023-02-13T16:23:51.001Z,17.20
2023-02-13T16:26:18.144Z,17.67
2023-02-13T16:28:47.425Z,17.37
2023-02-13T16:31:16.453Z,18.33
2023-02-13T16:33:43.973Z,19.73
2023-02-13T16:36:11.081Z,20.73
2023-02-13T16:38:41.244Z,20.23
2023-02-13T16:41:22.088Z,19.67
2023-02-13T16:43:53.218Z,20.50
2023-02-13T16:46:20.353Z,19.80
2023-02-13T16:48:48.925Z,20.47
2023-02-13T16:51:17.484Z,20.73
2023-02-13T16:53:44.634Z,19.93
2023-02-13T16:56:12.146Z,20.50
2023-02-13T16:58:39.324Z,20.77
2023-02-13T17:01:06.759Z,20.73
2023-02-13T17:03:33.958Z,19.97
2023-02-13T17:06:02.402Z,21.00
2023-02-13T17:08:31.280Z,20.90
2023-02-13T17:11:08.271Z,22.07
2023-02-13T17:13:35.453Z,22.03
2023-02-13T17:16:02.661Z,24.27
2023-02-13T17:18:29.887Z,26.87
2023-02-13T17:20:57.410Z,28.57
2023-02-13T17:23:25.636Z,26.47
2023-02-13T17:25:53.909Z,26.37
2023-02-13T17:28:29.194Z,24.10
2023-02-13T17:30:58.063Z,25.20
2023-02-13T17:33:29.904Z,25.87
2023-02-13T17:35:57.246Z,29.23
2023-02-13T17:38:24.714Z,28.13
2023-02-13T17:40:51.950Z,27.70
2023-02-13T17:43:19.711Z,26.07
2023-02-13T17:45:47.448Z,25.90
2023-02-13T17:48:14.675Z,25.90
2023-02-13T17:50:42.060Z,26.60
2023-02-13T17:53:14.104Z,28.13
2023-02-13T17:55:41.216Z,27.53
2023-02-13T17:58:08.333Z,26.50
2023-02-13T18:00:35.535Z,27.87
2023-02-13T18:03:03.149Z,27.70
2023-02-13T18:05:32.380Z,33.10
2023-02-13T18:08:02.037Z,29.40
2023-02-13T18:10:29.855Z,31.67
2023-02-13T18:13:03.818Z,32.70
2023-02-13T18:15:31.997Z,31.83
2023-02-13T18:17:59.146Z,29.67
2023-02-13T18:20:26.269Z,30.50
2023-02-13T18:22:53.901Z,28.47
2023-02-13T18:25:21.638Z,32.10
2023-02-13T18:27:48.871Z,32.87
2023-02-13T18:30:18.257Z,30.17
2023-02-13T18:32:45.439Z,29.50
2023-02-13T18:35:12.632Z,31.23
2023-02-13T18:37:39.738Z,29.97
2023-02-13T18:40:10.255Z,32.13
2023-02-13T18:42:38.864Z,30.43
2023-02-13T18:45:06.091Z,30.30
2023-02-13T18:47:34.570Z,31.70
2023-02-13T18:50:01.705Z,31.93
2023-02-13T18:52:28.771Z,31.00
2023-02-13T18:54:56.281Z,32.43
2023-02-13T18:57:23.460Z,34.20
2023-02-13T18:59:50.548Z,31.03
2023-02-13T19:02:17.645Z,34.93
2023-02-13T19:04:44.761Z,32.97
2023-02-13T19:07:11.848Z,31.33
2023-02-13T19:09:40.347Z,31.90
2023-02-13T19:12:08.232Z,33.33
2023-02-13T19:14:35.471Z,33.50
2023-02-13T19:17:02.620Z,36.73
2023-02-13T19:19:30.270Z,35.70
2023-02-13T19:21:57.678Z,37.90
2023-02-13T19:24:24.777Z,38.30
2023-02-13T19:26:51.894Z,38.33
2023-02-13T19:29:19.011Z,38.30
2023-02-13T19:31:46.227Z,39.77
2023-02-13T19:34:13.436Z,38.57
2023-02-13T19:36:40.537Z,41.13
2023-02-13T19:39:09.065Z,51.50
2023-02-13T19:41:36.541Z,41.60
2023-02-13T19:44:05.288Z,46.67
2023-02-13T19:46:33.300Z,47.30
2023-02-13T19:49:00.902Z,47.20
2023-02-13T19:51:29.299Z,45.37
2023-02-13T19:53:57.748Z,48.30
2023-02-13T19:56:26.321Z,43.90
2023-02-13T19:58:54.292Z,43.00
2023-02-13T20:01:22.621Z,43.30
2023-02-13T20:03:50.118Z,43.37
2023-02-13T20:06:18.609Z,41.93
2023-02-13T20:08:45.942Z,41.23
2023-02-13T20:11:14.572Z,43.10
2023-02-13T20:13:42.057Z,41.30
2023-02-13T20:16:10.584Z,46.13
2023-02-13T20:18:38.212Z,43.60
2023-02-13T20:21:06.295Z,44.20
2023-02-13T20:23:33.437Z,43.60
2023-02-13T20:26:05.006Z,44.07
2023-02-13T20:28:32.182Z,47.63
2023-02-13T20:31:00.654Z,46.70
2023-02-13T20:33:28.136Z,45.97
2023-02-13T20:35:55.766Z,45.97
2023-02-13T20:38:22.925Z,46.73
2023-02-13T20:40:50.016Z,47.07
2023-02-13T20:43:17.122Z,45.83
2023-02-13T20:45:44.201Z,43.27
2023-02-13T20:48:11.380Z,46.20
2023-02-13T20:50:38.522Z,44.13
2023-02-13T20:53:05.612Z,46.43
2023-02-13T20:55:32.791Z,46.57
2023-02-13T20:57:59.920Z,49.13
2023-02-13T21:00:27.073Z,43.67
2023-02-13T21:02:54.187Z,43.17
2023-02-13T21:05:21.350Z,44.70
2023-02-13T21:07:48.501Z,43.00
2023-02-13T21:10:15.702Z,42.33
2023-02-13T21:12:42.844Z,41.93
2023-02-13T21:15:10.139Z,42.73
2023-02-13T21:17:37.248Z,43.63
2023-02-13T21:20:05.598Z,42.57
2023-02-13T21:22:32.741Z,45.37
2023-02-13T21:24:59.830Z,47.03
2023-02-13T21:27:28.303Z,45.87
2023-02-13T21:29:55.638Z,47.03
2023-02-13T21:32:22.969Z,50.80
2023-02-13T21:34:50.115Z,51.53
2023-02-13T21:37:17.218Z,45.73
2023-02-13T21:39:44.353Z,44.97
2023-02-13T21:42:11.420Z,46.33
2023-02-13T21:44:38.502Z,45.93
2023-02-13T21:47:07.025Z,45.07
2023-02-13T21:49:35.193Z,45.47
2023-02-13T21:52:02.286Z,44.30
2023-02-13T21:54:29.397Z,46.03
2023-02-13T21:56:56.598Z,45.10
2023-02-13T21:59:23.697Z,40.87
2023-02-13T22:01:51.500Z,41.27
2023-02-13T22:04:19.109Z,40.40
2023-02-13T22:06:48.202Z,46.63
2023-02-13T22:09:16.326Z,44.53
2023-02-13T22:11:43.863Z,41.23
2023-02-13T22:14:17.043Z,42.40
2023-02-13T22:16:45.084Z,45.47
2023-02-13T22:19:13.776Z,42.63
2023-02-13T22:21:41.148Z,41.90
2023-02-13T22:24:08.370Z,41.20
2023-02-13T22:26:36.805Z,44.07
2023-02-13T22:29:05.855Z,41.80
2023-02-13T22:31:33.142Z,41.50
2023-02-13T22:34:05.065Z,42.23
2023-02-13T22:36:34.009Z,39.93
2023-02-13T22:39:01.225Z,43.13
2023-02-13T22:41:28.514Z,60.53
2023-02-13T22:43:55.793Z,46.47
2023-02-13T22:46:27.692Z,56.20
2023-02-13T22:48:54.952Z,47.97
2023-02-13T22:51:23.574Z,41.40
2023-02-13T22:53:53.252Z,41.80
2023-02-13T22:56:20.457Z,42.90
2023-02-13T22:58:47.525Z,41.40
2023-02-13T23:01:16.082Z,39.23
2023-02-13T23:03:43.708Z,40.70
2023-02-13T23:06:12.225Z,37.80
2023-02-13T23:08:39.594Z,31.33
2023-02-13T23:11:32.916Z,33.87
2023-02-13T23:14:00.455Z,39.03
2023-02-13T23:16:27.848Z,34.77
2023-02-13T23:18:58.342Z,41.40
2023-02-13T23:21:25.855Z,39.40
2023-02-13T23:23:53.181Z,45.87
2023-02-13T23:26:20.457Z,35.57
2023-02-13T23:28:47.561Z,43.10
2023-02-13T23:31:14.716Z,37.37
2023-02-13T23:33:41.844Z,35.37
2023-02-13T23:36:09.087Z,45.63
2023-02-13T23:38:36.311Z,41.90
2023-02-13T23:41:07.446Z,37.83
2023-02-13T23:43:34.579Z,42.87
2023-02-13T23:46:03.893Z,34.93
2023-02-13T23:48:31.055Z,40.73
2023-02-13T23:50:58.481Z,37.83
2023-02-13T23:53:25.841Z,33.47
2023-02-13T23:55:54.797Z,39.00
2023-02-13T23:58:21.989Z,35.50
